sensor_id;sensor_type;location;lat;lon;timestamp;pressure;altitude;pressure_sealevel;temperature;humidity
84932;BME280;75193;53.980;13.902;2024-01-11T00:00:32;103155.50;;;-0.54;90.80
84932;BME280;75193;53.980;13.902;2024-01-11T00:02:57;103149.69;;;-0.49;90.84
84932;BME280;75193;53.980;13.902;2024-01-11T00:05:22;103145.66;;;-0.39;90.46
84932;BME280;75193;53.980;13.902;2024-01-11T00:07:48;103133.47;;;-0.46;90.71
84932;BME280;75193;53.980;13.902;2024-01-11T00:10:14;103137.31;;;-0.32;90.04
84932;BME280;75193;53.980;13.902;2024-01-11T00:12:39;103138.75;;;-0.42;90.36
84932;BME280;75193;53.980;13.902;2024-01-11T00:15:05;103119.31;;;-0.34;90.22
84932;BME280;75193;53.980;13.902;2024-01-11T00:17:31;103124.28;;;-0.38;90.55
84932;BME280;75193;53.980;13.902;2024-01-11T00:19:56;103113.09;;;-0.40;90.10
84932;BME280;75193;53.980;13.902;2024-01-11T00:22:21;103098.84;;;-0.31;89.41
84932;BME280;75193;53.980;13.902;2024-01-11T00:24:47;103105.66;;;-0.31;89.58
84932;BME280;75193;53.980;13.902;2024-01-11T00:27:12;103103.75;;;-0.38;89.72
84932;BME280;75193;53.980;13.902;2024-01-11T00:29:38;103104.53;;;-0.41;90.27
84932;BME280;75193;53.980;13.902;2024-01-11T00:32:03;103109.50;;;-0.47;90.13
84932;BME280;75193;53.980;13.902;2024-01-11T00:34:29;103115.03;;;-0.33;90.22
84932;BME280;75193;53.980;13.902;2024-01-11T00:36:54;103117.63;;;-0.32;90.03
84932;BME280;75193;53.980;13.902;2024-01-11T00:39:20;103113.25;;;-0.36;89.83
84932;BME280;75193;53.980;13.902;2024-01-11T00:41:45;103123.38;;;-0.40;89.83
84932;BME280;75193;53.980;13.902;2024-01-11T00:44:10;103098.78;;;-0.32;89.56
84932;BME280;75193;53.980;13.902;2024-01-11T00:46:36;103103.03;;;-0.34;89.52
84932;BME280;75193;53.980;13.902;2024-01-11T00:49:03;103103.94;;;-0.32;89.58
84932;BME280;75193;53.980;13.902;2024-01-11T00:51:29;103115.06;;;-0.32;89.46
84932;BME280;75193;53.980;13.902;2024-01-11T00:53:54;103111.59;;;-0.34;89.53
84932;BME280;75193;53.980;13.902;2024-01-11T00:56:20;103103.75;;;-0.38;89.83
84932;BME280;75193;53.980;13.902;2024-01-11T00:58:45;103115.00;;;-0.35;89.81
84932;BME280;75193;53.980;13.902;2024-01-11T01:01:11;103116.03;;;-0.28;89.33
84932;BME280;75193;53.980;13.902;2024-01-11T01:03:37;103120.09;;;-0.36;89.08
84932;BME280;75193;53.980;13.902;2024-01-11T01:06:03;103110.44;;;-0.43;89.40
84932;BME280;75193;53.980;13.902;2024-01-11T01:08:29;103124.44;;;-0.34;89.33
84932;BME280;75193;53.980;13.902;2024-01-11T01:10:54;103117.94;;;-0.51;89.46
84932;BME280;75193;53.980;13.902;2024-01-11T01:13:20;103116.50;;;-0.41;89.49
84932;BME280;75193;53.980;13.902;2024-01-11T01:15:45;103105.97;;;-0.50;89.57
84932;BME280;75193;53.980;13.902;2024-01-11T01:18:11;103095.34;;;-0.33;88.74
84932;BME280;75193;53.980;13.902;2024-01-11T01:20:36;103104.72;;;-0.35;89.12
84932;BME280;75193;53.980;13.902;2024-01-11T01:23:02;103106.66;;;-0.26;89.01
84932;BME280;75193;53.980;13.902;2024-01-11T01:25:28;103105.44;;;-0.39;89.21
84932;BME280;75193;53.980;13.902;2024-01-11T01:27:53;103091.56;;;-0.45;88.99
84932;BME280;75193;53.980;13.902;2024-01-11T01:30:20;103106.50;;;-0.32;88.70
84932;BME280;75193;53.980;13.902;2024-01-11T01:32:45;103110.84;;;-0.29;88.78
84932;BME280;75193;53.980;13.902;2024-01-11T01:35:11;103107.41;;;-0.30;88.61
84932;BME280;75193;53.980;13.902;2024-01-11T01:37:36;103118.44;;;-0.34;88.78
84932;BME280;75193;53.980;13.902;2024-01-11T01:40:01;103108.00;;;-0.39;88.96
84932;BME280;75193;53.980;13.902;2024-01-11T01:42:27;103094.09;;;-0.47;89.08
84932;BME280;75193;53.980;13.902;2024-01-11T01:44:53;103087.16;;;-0.49;89.06
84932;BME280;75193;53.980;13.902;2024-01-11T01:47:18;103090.09;;;-0.37;88.89
84932;BME280;75193;53.980;13.902;2024-01-11T01:49:44;103099.47;;;-0.38;88.79
84932;BME280;75193;53.980;13.902;2024-01-11T01:52:13;103093.66;;;-0.32;88.51
84932;BME280;75193;53.980;13.902;2024-01-11T01:54:39;103083.34;;;-0.34;88.61
84932;BME280;75193;53.980;13.902;2024-01-11T01:57:07;103081.78;;;-0.27;88.46
84932;BME280;75193;53.980;13.902;2024-01-11T01:59:34;103079.03;;;-0.35;88.85
84932;BME280;75193;53.980;13.902;2024-01-11T02:02:00;103083.38;;;-0.32;88.51
84932;BME280;75193;53.980;13.902;2024-01-11T02:04:26;103079.28;;;-0.25;88.42
84932;BME280;75193;53.980;13.902;2024-01-11T02:06:53;103080.06;;;-0.28;88.45
84932;BME280;75193;53.980;13.902;2024-01-11T02:09:20;103079.88;;;-0.36;88.67
84932;BME280;75193;53.980;13.902;2024-01-11T02:11:46;103073.19;;;-0.29;88.48
84932;BME280;75193;53.980;13.902;2024-01-11T02:14:11;103078.88;;;-0.39;88.80
84932;BME280;75193;53.980;13.902;2024-01-11T02:16:37;103071.38;;;-0.33;88.62
84932;BME280;75193;53.980;13.902;2024-01-11T02:19:07;103071.47;;;-0.28;88.84
84932;BME280;75193;53.980;13.902;2024-01-11T02:21:34;103081.19;;;-0.18;88.15
84932;BME280;75193;53.980;13.902;2024-01-11T02:24:04;103089.31;;;-0.35;88.88
84932;BME280;75193;53.980;13.902;2024-01-11T02:26:29;103074.56;;;-0.40;89.12
84932;BME280;75193;53.980;13.902;2024-01-11T02:28:55;103095.47;;;-0.28;88.68
84932;BME280;75193;53.980;13.902;2024-01-11T02:31:21;103107.44;;;-0.28;88.66
84932;BME280;75193;53.980;13.902;2024-01-11T02:33:47;103103.03;;;-0.34;89.12
84932;BME280;75193;53.980;13.902;2024-01-11T02:36:13;103106.56;;;-0.29;89.00
84932;BME280;75193;53.980;13.902;2024-01-11T02:38:40;103108.19;;;-0.33;88.89
84932;BME280;75193;53.980;13.902;2024-01-11T02:41:07;103104.22;;;-0.21;88.64
84932;BME280;75193;53.980;13.902;2024-01-11T02:43:33;103104.03;;;-0.27;88.71
84932;BME280;75193;53.980;13.902;2024-01-11T02:46:02;103084.47;;;-0.22;88.12
84932;BME280;75193;53.980;13.902;2024-01-11T02:48:30;103085.88;;;-0.35;88.64
84932;BME280;75193;53.980;13.902;2024-01-11T02:50:57;103088.56;;;-0.31;88.68
84932;BME280;75193;53.980;13.902;2024-01-11T02:53:22;103094.69;;;-0.25;88.07
84932;BME280;75193;53.980;13.902;2024-01-11T02:55:49;103084.16;;;-0.35;88.70
84932;BME280;75193;53.980;13.902;2024-01-11T02:58:14;103080.84;;;-0.31;88.33
84932;BME280;75193;53.980;13.902;2024-01-11T03:00:40;103075.78;;;-0.27;88.44
84932;BME280;75193;53.980;13.902;2024-01-11T03:03:05;103086.78;;;-0.33;88.74
84932;BME280;75193;53.980;13.902;2024-01-11T03:05:31;103079.00;;;-0.36;89.34
84932;BME280;75193;53.980;13.902;2024-01-11T03:07:56;103093.63;;;-0.34;88.26
84932;BME280;75193;53.980;13.902;2024-01-11T03:10:22;103095.50;;;-0.26;87.87
84932;BME280;75193;53.980;13.902;2024-01-11T03:12:48;103085.75;;;-0.38;88.37
84932;BME280;75193;53.980;13.902;2024-01-11T03:15:15;103077.25;;;-0.37;88.52
84932;BME280;75193;53.980;13.902;2024-01-11T03:17:40;103077.38;;;-0.33;88.25
84932;BME280;75193;53.980;13.902;2024-01-11T03:20:06;103072.91;;;-0.38;87.73
84932;BME280;75193;53.980;13.902;2024-01-11T03:22:32;103073.63;;;-0.44;87.07
84932;BME280;75193;53.980;13.902;2024-01-11T03:24:57;103058.94;;;-0.49;87.72
84932;BME280;75193;53.980;13.902;2024-01-11T03:27:23;103057.19;;;-0.50;87.82
84932;BME280;75193;53.980;13.902;2024-01-11T03:29:48;103071.13;;;-0.41;87.48
84932;BME280;75193;53.980;13.902;2024-01-11T03:32:15;103064.31;;;-0.40;86.82
84932;BME280;75193;53.980;13.902;2024-01-11T03:34:41;103063.28;;;-0.47;87.08
84932;BME280;75193;53.980;13.902;2024-01-11T03:37:06;103062.81;;;-0.32;86.79
84932;BME280;75193;53.980;13.902;2024-01-11T03:39:32;103063.44;;;-0.41;86.55
84932;BME280;75193;53.980;13.902;2024-01-11T03:41:58;103049.44;;;-0.52;87.57
84932;BME280;75193;53.980;13.902;2024-01-11T03:44:24;103047.03;;;-0.46;87.66
84932;BME280;75193;53.980;13.902;2024-01-11T03:46:49;103060.31;;;-0.31;86.96
84932;BME280;75193;53.980;13.902;2024-01-11T03:49:14;103047.22;;;-0.38;86.66
84932;BME280;75193;53.980;13.902;2024-01-11T03:51:40;103050.91;;;-0.60;87.36
84932;BME280;75193;53.980;13.902;2024-01-11T03:54:05;103054.03;;;-0.40;86.83
84932;BME280;75193;53.980;13.902;2024-01-11T03:56:31;103039.03;;;-0.56;87.63
84932;BME280;75193;53.980;13.902;2024-01-11T03:58:56;103041.28;;;-0.37;86.64
84932;BME280;75193;53.980;13.902;2024-01-11T04:01:22;103032.59;;;-0.41;86.77
84932;BME280;75193;53.980;13.902;2024-01-11T04:03:47;103042.69;;;-0.48;87.20
84932;BME280;75193;53.980;13.902;2024-01-11T04:06:23;103018.81;;;-0.44;87.19
84932;BME280;75193;53.980;13.902;2024-01-11T04:08:50;103016.13;;;-0.49;87.05
84932;BME280;75193;53.980;13.902;2024-01-11T04:11:16;103032.34;;;-0.51;86.62
84932;BME280;75193;53.980;13.902;2024-01-11T04:13:43;103030.63;;;-0.51;87.34
84932;BME280;75193;53.980;13.902;2024-01-11T04:16:08;103026.38;;;-0.50;86.91
84932;BME280;75193;53.980;13.902;2024-01-11T04:18:34;103046.00;;;-0.52;86.93
84932;BME280;75193;53.980;13.902;2024-01-11T04:20:59;103038.22;;;-0.55;87.16
84932;BME280;75193;53.980;13.902;2024-01-11T04:23:25;103031.94;;;-0.65;87.43
84932;BME280;75193;53.980;13.902;2024-01-11T04:25:50;103035.50;;;-0.60;87.09
84932;BME280;75193;53.980;13.902;2024-01-11T04:28:17;103037.56;;;-0.48;86.70
84932;BME280;75193;53.980;13.902;2024-01-11T04:30:43;103048.69;;;-0.48;86.96
84932;BME280;75193;53.980;13.902;2024-01-11T04:33:09;103047.75;;;-0.51;86.88
84932;BME280;75193;53.980;13.902;2024-01-11T04:35:34;103044.38;;;-0.49;87.29
84932;BME280;75193;53.980;13.902;2024-01-11T04:38:00;103046.47;;;-0.36;86.19
84932;BME280;75193;53.980;13.902;2024-01-11T04:40:25;103047.13;;;-0.43;85.80
84932;BME280;75193;53.980;13.902;2024-01-11T04:42:51;103034.13;;;-0.49;86.42
84932;BME280;75193;53.980;13.902;2024-01-11T04:45:16;103035.78;;;-0.51;86.49
84932;BME280;75193;53.980;13.902;2024-01-11T04:47:42;103040.88;;;-0.52;86.86
84932;BME280;75193;53.980;13.902;2024-01-11T04:50:08;103027.13;;;-0.54;87.13
84932;BME280;75193;53.980;13.902;2024-01-11T04:52:34;103010.25;;;-0.45;86.82
84932;BME280;75193;53.980;13.902;2024-01-11T04:54:59;103015.34;;;-0.46;86.64
84932;BME280;75193;53.980;13.902;2024-01-11T04:57:25;103016.84;;;-0.54;86.57
84932;BME280;75193;53.980;13.902;2024-01-11T04:59:50;103015.47;;;-0.42;86.10
84932;BME280;75193;53.980;13.902;2024-01-11T05:02:16;103030.91;;;-0.40;86.40
84932;BME280;75193;53.980;13.902;2024-01-11T05:04:41;103037.56;;;-0.48;86.70
84932;BME280;75193;53.980;13.902;2024-01-11T05:07:06;103034.97;;;-0.48;86.70
84932;BME280;75193;53.980;13.902;2024-01-11T05:09:32;103028.66;;;-0.59;87.25
84932;BME280;75193;53.980;13.902;2024-01-11T05:11:58;103008.16;;;-0.58;87.19
84932;BME280;75193;53.980;13.902;2024-01-11T05:14:23;103021.84;;;-0.59;87.17
84932;BME280;75193;53.980;13.902;2024-01-11T05:16:48;103010.78;;;-0.56;87.15
84932;BME280;75193;53.980;13.902;2024-01-11T05:19:15;103023.38;;;-0.66;87.72
84932;BME280;75193;53.980;13.902;2024-01-11T05:21:41;103023.53;;;-0.59;87.71
84932;BME280;75193;53.980;13.902;2024-01-11T05:24:06;102984.34;;;-0.54;87.26
84932;BME280;75193;53.980;13.902;2024-01-11T05:26:32;102988.38;;;-0.62;87.19
84932;BME280;75193;53.980;13.902;2024-01-11T05:28:57;103000.50;;;-0.56;87.37
84932;BME280;75193;53.980;13.902;2024-01-11T05:31:23;102993.59;;;-0.59;87.55
84932;BME280;75193;53.980;13.902;2024-01-11T05:33:48;102970.13;;;-0.73;87.98
84932;BME280;75193;53.980;13.902;2024-01-11T05:36:13;102961.03;;;-0.60;87.80
84932;BME280;75193;53.980;13.902;2024-01-11T05:38:39;102969.50;;;-0.64;87.90
84932;BME280;75193;53.980;13.902;2024-01-11T05:41:05;102964.41;;;-0.63;87.63
84932;BME280;75193;53.980;13.902;2024-01-11T05:43:33;102957.38;;;-0.70;87.68
84932;BME280;75193;53.980;13.902;2024-01-11T05:45:59;102966.69;;;-0.73;87.79
84932;BME280;75193;53.980;13.902;2024-01-11T05:48:24;102953.97;;;-0.69;87.49
84932;BME280;75193;53.980;13.902;2024-01-11T05:50:50;102937.88;;;-0.63;87.28
84932;BME280;75193;53.980;13.902;2024-01-11T05:53:15;102944.69;;;-0.64;87.78
84932;BME280;75193;53.980;13.902;2024-01-11T05:55:42;102941.28;;;-0.63;87.42
84932;BME280;75193;53.980;13.902;2024-01-11T05:58:07;102937.03;;;-0.62;87.47
84932;BME280;75193;53.980;13.902;2024-01-11T06:00:33;102935.22;;;-0.66;87.46
84932;BME280;75193;53.980;13.902;2024-01-11T06:02:58;102942.06;;;-0.67;87.43
84932;BME280;75193;53.980;13.902;2024-01-11T06:05:25;102950.50;;;-0.71;87.55
84932;BME280;75193;53.980;13.902;2024-01-11T06:07:50;102960.38;;;-0.54;86.95
84932;BME280;75193;53.980;13.902;2024-01-11T06:10:16;102969.31;;;-0.72;87.58
84932;BME280;75193;53.980;13.902;2024-01-11T06:12:42;102949.38;;;-0.80;87.91
84932;BME280;75193;53.980;13.902;2024-01-11T06:15:07;102943.06;;;-0.60;87.17
84932;BME280;75193;53.980;13.902;2024-01-11T06:17:33;102957.50;;;-0.65;87.63
84932;BME280;75193;53.980;13.902;2024-01-11T06:19:58;102956.81;;;-0.58;87.38
84932;BME280;75193;53.980;13.902;2024-01-11T06:22:24;102970.63;;;-0.54;87.18
84932;BME280;75193;53.980;13.902;2024-01-11T06:24:49;102987.44;;;-0.66;87.49
84932;BME280;75193;53.980;13.902;2024-01-11T06:27:14;102986.22;;;-0.78;87.83
84932;BME280;75193;53.980;13.902;2024-01-11T06:29:40;102982.38;;;-0.63;87.81
84932;BME280;75193;53.980;13.902;2024-01-11T06:32:06;102987.59;;;-0.59;87.41
84932;BME280;75193;53.980;13.902;2024-01-11T06:34:32;102982.34;;;-0.64;87.64
84932;BME280;75193;53.980;13.902;2024-01-11T06:36:57;102980.75;;;-0.59;87.81
84932;BME280;75193;53.980;13.902;2024-01-11T06:39:23;102985.38;;;-0.77;88.17
84932;BME280;75193;53.980;13.902;2024-01-11T06:41:48;102970.19;;;-0.71;87.37
84932;BME280;75193;53.980;13.902;2024-01-11T06:44:14;102957.53;;;-0.64;87.43
84932;BME280;75193;53.980;13.902;2024-01-11T06:46:39;102958.47;;;-0.60;87.36
84932;BME280;75193;53.980;13.902;2024-01-11T06:49:09;102963.19;;;-0.75;87.23
84932;BME280;75193;53.980;13.902;2024-01-11T06:51:34;102959.03;;;-0.72;87.38
84932;BME280;75193;53.980;13.902;2024-01-11T06:54:00;102982.41;;;-0.61;87.02
84932;BME280;75193;53.980;13.902;2024-01-11T06:56:26;102984.41;;;-0.51;86.12
84932;BME280;75193;53.980;13.902;2024-01-11T06:58:52;102956.50;;;-0.70;86.99
84932;BME280;75193;53.980;13.902;2024-01-11T07:01:17;102961.09;;;-0.58;87.01
84932;BME280;75193;53.980;13.902;2024-01-11T07:03:43;102963.13;;;-0.78;87.81
84932;BME280;75193;53.980;13.902;2024-01-11T07:06:08;102966.56;;;-0.78;87.50
84932;BME280;75193;53.980;13.902;2024-01-11T07:08:34;102973.56;;;-0.72;87.84
84932;BME280;75193;53.980;13.902;2024-01-11T07:11:01;102984.03;;;-0.65;87.70
84932;BME280;75193;53.980;13.902;2024-01-11T07:13:28;102979.09;;;-0.57;87.25
84932;BME280;75193;53.980;13.902;2024-01-11T07:15:54;102980.53;;;-0.68;87.32
84932;BME280;75193;53.980;13.902;2024-01-11T07:18:21;102978.78;;;-0.69;87.72
84932;BME280;75193;53.980;13.902;2024-01-11T07:20:46;102972.34;;;-0.85;88.20
84932;BME280;75193;53.980;13.902;2024-01-11T07:23:13;102962.63;;;-0.65;87.39
84932;BME280;75193;53.980;13.902;2024-01-11T07:25:38;102956.59;;;-0.67;87.67
84932;BME280;75193;53.980;13.902;2024-01-11T07:28:04;102938.78;;;-0.61;87.25
84932;BME280;75193;53.980;13.902;2024-01-11T07:30:30;102941.97;;;-0.70;87.58
84932;BME280;75193;53.980;13.902;2024-01-11T07:32:55;102939.56;;;-0.64;87.10
84932;BME280;75193;53.980;13.902;2024-01-11T07:35:20;102936.19;;;-0.61;87.00
84932;BME280;75193;53.980;13.902;2024-01-11T07:37:46;102944.03;;;-0.56;86.33
84932;BME280;75193;53.980;13.902;2024-01-11T07:40:12;102948.41;;;-0.54;86.59
84932;BME280;75193;53.980;13.902;2024-01-11T07:42:39;102930.38;;;-0.55;86.66
84932;BME280;75193;53.980;13.902;2024-01-11T07:45:06;102946.81;;;-0.49;86.37
84932;BME280;75193;53.980;13.902;2024-01-11T07:47:33;102932.94;;;-0.55;86.97
84932;BME280;75193;53.980;13.902;2024-01-11T07:49:59;102946.44;;;-0.63;87.25
84932;BME280;75193;53.980;13.902;2024-01-11T07:52:24;102946.91;;;-0.44;86.62
84932;BME280;75193;53.980;13.902;2024-01-11T07:54:49;102945.63;;;-0.60;87.44
84932;BME280;75193;53.980;13.902;2024-01-11T07:57:15;102939.25;;;-0.43;86.73
84932;BME280;75193;53.980;13.902;2024-01-11T07:59:40;102954.75;;;-0.38;86.52
84932;BME280;75193;53.980;13.902;2024-01-11T08:02:06;102959.75;;;-0.44;86.77
84932;BME280;75193;53.980;13.902;2024-01-11T08:04:32;102964.31;;;-0.34;86.88
84932;BME280;75193;53.980;13.902;2024-01-11T08:06:58;102975.41;;;-0.35;87.29
84932;BME280;75193;53.980;13.902;2024-01-11T08:09:27;102966.06;;;-0.33;87.01
84932;BME280;75193;53.980;13.902;2024-01-11T08:11:53;102970.25;;;-0.37;87.17
84932;BME280;75193;53.980;13.902;2024-01-11T08:14:19;102953.31;;;-0.28;87.11
84932;BME280;75193;53.980;13.902;2024-01-11T08:16:45;102965.75;;;-0.44;87.73
84932;BME280;75193;53.980;13.902;2024-01-11T08:19:10;102963.19;;;-0.44;87.97
84932;BME280;75193;53.980;13.902;2024-01-11T08:21:39;102962.84;;;-0.24;87.23
84932;BME280;75193;53.980;13.902;2024-01-11T08:24:04;102965.38;;;-0.26;87.35
84932;BME280;75193;53.980;13.902;2024-01-11T08:26:30;102972.34;;;-0.20;87.23
84932;BME280;75193;53.980;13.902;2024-01-11T08:28:56;102961.06;;;-0.27;87.94
84932;BME280;75193;53.980;13.902;2024-01-11T08:31:21;102953.53;;;-0.19;87.55
84932;BME280;75193;53.980;13.902;2024-01-11T08:34:08;102956.88;;;-0.23;87.68
84932;BME280;75193;53.980;13.902;2024-01-11T08:36:35;102949.25;;;-0.19;87.48
84932;BME280;75193;53.980;13.902;2024-01-11T08:39:05;102956.22;;;-0.16;87.36
84932;BME280;75193;53.980;13.902;2024-01-11T08:41:31;102962.31;;;-0.11;87.31
84932;BME280;75193;53.980;13.902;2024-01-11T08:43:56;102969.31;;;-0.06;86.98
84932;BME280;75193;53.980;13.902;2024-01-11T08:46:25;102958.25;;;-0.02;86.86
84932;BME280;75193;53.980;13.902;2024-01-11T08:48:52;102951.47;;;0.01;87.06
84932;BME280;75193;53.980;13.902;2024-01-11T08:51:17;102964.41;;;0.04;87.15
84932;BME280;75193;53.980;13.902;2024-01-11T08:53:43;102951.59;;;0.05;87.23
84932;BME280;75193;53.980;13.902;2024-01-11T08:56:08;102947.94;;;-0.03;87.39
84932;BME280;75193;53.980;13.902;2024-01-11T08:58:34;102942.25;;;0.09;87.09
84932;BME280;75193;53.980;13.902;2024-01-11T09:00:59;102948.84;;;-0.01;87.55
84932;BME280;75193;53.980;13.902;2024-01-11T09:03:24;102958.72;;;0.18;87.12
84932;BME280;75193;53.980;13.902;2024-01-11T09:05:50;102952.59;;;0.12;87.20
84932;BME280;75193;53.980;13.902;2024-01-11T09:08:15;102949.38;;;0.20;87.09
84932;BME280;75193;53.980;13.902;2024-01-11T09:10:41;102939.16;;;0.23;86.96
84932;BME280;75193;53.980;13.902;2024-01-11T09:13:07;102930.56;;;0.21;87.12
84932;BME280;75193;53.980;13.902;2024-01-11T09:15:32;102929.13;;;0.36;86.82
84932;BME280;75193;53.980;13.902;2024-01-11T09:17:59;102904.41;;;0.41;86.76
84932;BME280;75193;53.980;13.902;2024-01-11T09:20:25;102905.91;;;0.31;87.13
84932;BME280;75193;53.980;13.902;2024-01-11T09:22:50;102905.91;;;0.31;86.95
84932;BME280;75193;53.980;13.902;2024-01-11T09:25:16;102918.13;;;0.41;86.83
84932;BME280;75193;53.980;13.902;2024-01-11T09:27:41;102916.50;;;0.45;86.73
84932;BME280;75193;53.980;13.902;2024-01-11T09:30:07;102925.09;;;0.47;87.05
84932;BME280;75193;53.980;13.902;2024-01-11T09:32:34;102936.38;;;0.53;86.77
84932;BME280;75193;53.980;13.902;2024-01-11T09:34:59;102934.53;;;0.46;86.87
84932;BME280;75193;53.980;13.902;2024-01-11T09:37:25;102927.22;;;0.66;86.59
84932;BME280;75193;53.980;13.902;2024-01-11T09:39:51;102911.72;;;0.62;86.75
84932;BME280;75193;53.980;13.902;2024-01-11T09:42:18;102909.19;;;0.65;86.75
84932;BME280;75193;53.980;13.902;2024-01-11T09:44:43;102892.84;;;0.61;86.65
84932;BME280;75193;53.980;13.902;2024-01-11T09:47:10;102883.69;;;0.75;86.63
84932;BME280;75193;53.980;13.902;2024-01-11T09:49:38;102879.50;;;0.80;86.09
84932;BME280;75193;53.980;13.902;2024-01-11T09:52:05;102886.28;;;0.75;86.21
84932;BME280;75193;53.980;13.902;2024-01-11T09:54:34;102892.69;;;0.96;85.79
84932;BME280;75193;53.980;13.902;2024-01-11T09:57:02;102896.94;;;0.94;85.50
84932;BME280;75193;53.980;13.902;2024-01-11T09:59:30;102900.63;;;1.08;85.10
84932;BME280;75193;53.980;13.902;2024-01-11T10:01:55;102914.47;;;1.13;84.53
84932;BME280;75193;53.980;13.902;2024-01-11T10:04:22;102917.97;;;1.18;84.40
84932;BME280;75193;53.980;13.902;2024-01-11T10:06:48;102926.72;;;1.28;83.96
84932;BME280;75193;53.980;13.902;2024-01-11T10:09:16;102926.91;;;1.35;83.84
84932;BME280;75193;53.980;13.902;2024-01-11T10:11:42;102932.94;;;1.37;84.13
84932;BME280;75193;53.980;13.902;2024-01-11T10:14:07;102921.88;;;1.43;83.43
84932;BME280;75193;53.980;13.902;2024-01-11T10:16:33;102939.88;;;1.41;83.55
84932;BME280;75193;53.980;13.902;2024-01-11T10:18:59;102920.13;;;1.42;83.61
84932;BME280;75193;53.980;13.902;2024-01-11T10:21:27;102926.94;;;1.38;83.56
84932;BME280;75193;53.980;13.902;2024-01-11T10:23:57;102903.81;;;1.41;83.39
84932;BME280;75193;53.980;13.902;2024-01-11T10:26:23;102913.50;;;1.55;82.80
84932;BME280;75193;53.980;13.902;2024-01-11T10:28:48;102916.72;;;1.43;83.20
84932;BME280;75193;53.980;13.902;2024-01-11T10:31:14;102923.66;;;1.47;83.25
84932;BME280;75193;53.980;13.902;2024-01-11T10:33:44;102922.06;;;1.54;82.89
84932;BME280;75193;53.980;13.902;2024-01-11T10:36:11;102928.03;;;1.51;83.28
84932;BME280;75193;53.980;13.902;2024-01-11T10:38:39;102927.28;;;1.57;82.66
84932;BME280;75193;53.980;13.902;2024-01-11T10:41:05;102929.06;;;1.62;82.22
84932;BME280;75193;53.980;13.902;2024-01-11T10:43:32;102928.97;;;1.55;82.16
84932;BME280;75193;53.980;13.902;2024-01-11T10:46:01;102931.66;;;1.62;82.66
84932;BME280;75193;53.980;13.902;2024-01-11T10:48:30;102925.59;;;1.60;82.76
84932;BME280;75193;53.980;13.902;2024-01-11T10:51:01;102924.84;;;1.67;82.29
84932;BME280;75193;53.980;13.902;2024-01-11T10:53:46;102916.25;;;1.65;82.33
84932;BME280;75193;53.980;13.902;2024-01-11T10:56:13;102922.16;;;1.60;82.86
84932;BME280;75193;53.980;13.902;2024-01-11T10:58:42;102922.38;;;1.72;82.08
84932;BME280;75193;53.980;13.902;2024-01-11T11:01:11;102928.41;;;1.72;82.45
84932;BME280;75193;53.980;13.902;2024-01-11T11:03:38;102931.94;;;1.79;82.09
84932;BME280;75193;53.980;13.902;2024-01-11T11:06:05;102935.47;;;1.86;81.76
84932;BME280;75193;53.980;13.902;2024-01-11T11:08:36;102931.00;;;1.74;82.16
84932;BME280;75193;53.980;13.902;2024-01-11T11:11:03;102924.50;;;1.97;81.50
84932;BME280;75193;53.980;13.902;2024-01-11T11:13:31;102918.59;;;2.04;80.81
84932;BME280;75193;53.980;13.902;2024-01-11T11:15:57;102913.38;;;2.01;80.78
84932;BME280;75193;53.980;13.902;2024-01-11T11:18:24;102909.88;;;1.96;81.18
84932;BME280;75193;53.980;13.902;2024-01-11T11:20:50;102916.75;;;1.97;81.05
84932;BME280;75193;53.980;13.902;2024-01-11T11:23:17;102905.56;;;1.95;80.98
84932;BME280;75193;53.980;13.902;2024-01-11T11:25:48;102884.91;;;1.92;81.49
84932;BME280;75193;53.980;13.902;2024-01-11T11:28:15;102880.66;;;1.96;81.24
84932;BME280;75193;53.980;13.902;2024-01-11T11:30:47;102887.63;;;2.03;80.78
84932;BME280;75193;53.980;13.902;2024-01-11T11:33:21;102889.16;;;1.89;81.37
84932;BME280;75193;53.980;13.902;2024-01-11T11:35:52;102879.81;;;1.97;80.96
84932;BME280;75193;53.980;13.902;2024-01-11T11:38:20;102890.13;;;1.98;81.14
84932;BME280;75193;53.980;13.902;2024-01-11T11:40:47;102889.34;;;2.02;80.77
84932;BME280;75193;53.980;13.902;2024-01-11T11:43:15;102894.41;;;1.96;81.25
84932;BME280;75193;53.980;13.902;2024-01-11T11:45:42;102892.63;;;1.91;81.38
84932;BME280;75193;53.980;13.902;2024-01-11T11:51:21;102896.22;;;2.03;80.56
84932;BME280;75193;53.980;13.902;2024-01-11T11:53:48;102886.56;;;1.89;81.45
84932;BME280;75193;53.980;13.902;2024-01-11T11:56:16;102889.16;;;1.90;81.48
84932;BME280;75193;53.980;13.902;2024-01-11T11:58:43;102884.88;;;1.91;81.67
84932;BME280;75193;53.980;13.902;2024-01-11T12:01:09;102891.84;;;1.96;81.37
84932;BME280;75193;53.980;13.902;2024-01-11T12:03:36;102891.84;;;1.98;81.12
84932;BME280;75193;53.980;13.902;2024-01-11T12:06:03;102885.00;;;2.00;80.97
84932;BME280;75193;53.980;13.902;2024-01-11T12:08:29;102878.09;;;1.97;81.16
84932;BME280;75193;53.980;13.902;2024-01-11T12:10:54;102875.66;;;2.06;80.85
84932;BME280;75193;53.980;13.902;2024-01-11T12:13:20;102867.09;;;2.07;80.87
84932;BME280;75193;53.980;13.902;2024-01-11T12:15:46;102859.28;;;2.04;80.75
84932;BME280;75193;53.980;13.902;2024-01-11T12:18:12;102856.63;;;1.98;81.13
84932;BME280;75193;53.980;13.902;2024-01-11T12:20:37;102861.94;;;2.09;80.69
84932;BME280;75193;53.980;13.902;2024-01-11T12:23:03;102861.03;;;2.05;80.80
84932;BME280;75193;53.980;13.902;2024-01-11T12:25:30;102839.50;;;2.03;80.99
84932;BME280;75193;53.980;13.902;2024-01-11T12:27:56;102849.06;;;2.10;80.43
84932;BME280;75193;53.980;13.902;2024-01-11T12:30:22;102848.81;;;1.92;81.04
84932;BME280;75193;53.980;13.902;2024-01-11T12:32:49;102843.63;;;1.89;81.59
84932;BME280;75193;53.980;13.902;2024-01-11T12:35:16;102828.22;;;1.95;81.20
84932;BME280;75193;53.980;13.902;2024-01-11T12:37:55;102841.13;;;1.95;81.18
84932;BME280;75193;53.980;13.902;2024-01-11T12:40:21;102841.97;;;1.94;81.04